My Meet Scores
Natalie Hrkel, Gym Kinetics Gymnastics - MyMeetScores.com
Top100 | Top Teams | Upcoming Meets | Completed Meets | Latest | Add Scores | Help| Support | Bookmark and Share

Natalie Hrkel, Gym Kinetics Gymnastics
Personal Bests
LevelVault BarsBeamFloorAA
39.5509.500 9.7759.55038.375
49.3509.400 9.6259.25037.000
59.1508.800 9.1259.10035.550
69.5259.350 9.6009.57537.850
79.4759.550 9.4259.55037.850
Meet Scores
Date Meet Team Session Level Division Vault Bars Beam Floor AA
2018-03-23 Illinois Level 7 & 8 State Competition Gym Kinetics Gymnastics 08 7 Jr D 9.425 6 9.450 6 9.425 11 9.550 5 37.850 4
2018-02-23 Kinetic Classic Gym Kinetics Gymnastics 1 7 Older 9.200 19T 9.550 5T 9.150 17T 9.400 3T 37.300 3
2018-02-09 Arizona Sunrays Classic Rock Invitational Gym Kinetics Gymnastics B03 7 JrD 9.275 4T 9.350 2 7.850 10 9.175 4 35.650 5
2018-02-03 Midwest Games Gym Kinetics Gymnastics 7 7 SR 9.400 3 9.400 1 9.100 7 9.350 7 37.250 3
2018-01-19 2018 Bravo Classic Gym Kinetics Gymnastics 3A 7 Jr 9.150 10 9.250 2 8.875 13 9.350 5T 36.625 6
2017-12-15 2017 Aspire Classic Gym Kinetics Gymnastics 2 7 Sr A 9.475 9 9.525 3 9.300 6T 9.300 6 37.600 2
2017-03-23 2017 Illinois Level 6, 7 State Championship Gym Kinetics Gymnastics 8 6 Jr B 9.525 2T 9.200 5 9.600 3 9.525 5 37.850 2
2017-02-24 Kinetic Classic Gym Kinetics Gymnastics 9 6 All Ages 9.100 14 9.350 9T 9.600 2T 9.500 3T 37.550 3
2017-02-09 Hal's Harley-Davidson Invite Gym Kinetics Gymnastics S01 6 11 yrs. 9.275 3 8.950 3 9.350 2 9.575 1 37.150 2
2017-01-13 St Jude Benefit Meet Gym Kinetics Gymnastics 2B 6 Jr B 9.300 3 9.125 4 9.425 3 9.500 5T 37.350 3
2016-12-16 2016 Aspire Classic Gym Kinetics Gymnastics 3 6 Younger 9.500 1 9.200 5 9.400 3 9.450 3T 37.550 3
2016-02-20 Big Classic Gym Kinetics Gymnastics 11B 5 Child B 9.150 9 8.450 13 8.850 10 8.625 13 35.075 13
2016-01-22 2016 Honkytonk Classic Gym Kinetics Gymnastics 04 5 Ch 9.025 6 8.800 6 8.625 3 9.025 4 35.475 4
2016-01-15 2016 Bravo Classic Gym Kinetics Gymnastics 1A 5 10yrs 9.000 5T 7.900 18 8.625 11 8.625 14 34.150 15
2015-12-18 2015 Aspire Classic Gym Kinetics Gymnastics 12 5 Middle 8.925 7 8.450 8 9.075 6T 9.100 6 35.550 5
2015-12-04 2015 Ultimate Wish Classic Gym Kinetics Gymnastics 9A 5 All 8.700 37 8.400 40 9.125 8 8.400 51 34.625 35
2015-03-19 2015 Illinois Level 4 State Championship Gym Kinetics Gymnastics All 4 YouthD 9.350 3 8.850 15 9.400 8 9.250 12 36.850 7
2015-02-27 Gasparilla Classic Gym Kinetics Gymnastics D6 4 L4 D6 grp3 9.250 1 9.250 1 9.475 1 9.025 1 37.000 1
2015-02-21 BIG Classic Gym Kinetics Gymnastics 5A 4 Child B 8.900 4 9.400 3 8.800 12 8.950 3 36.050 4
2015-01-23 King Arthur Invitational Gym Kinetics Gymnastics 5 4 JrB 9.025 1 9.150 3 9.300 3 9.100 10 36.575 2
2015-01-09 Legacy Elite Winter Classic 2015 Flipstar Gymnastics Academy 4B 4 Ch C 7.150 14 9.025 4 9.625 1 9.050 4T 34.850 4
2014-03-07 Illinois Level 3 State Meet Gym Kinetics Gymnastics 8 3 Youth 9.550 13 9.500 3 9.775 1 9.550 3 38.375 1
2014-02-15 BIG Dream Classic 2014 Gym Kinetics Gymnastics 6A 3 Child B 9.450 2 9.425 3 9.275 2T 9.250 4T 37.400 3
2014-01-17 2014 Bravo Classic Gym Kinetics Gymnastics 6B 3 8yrs 9.475 4T 9.225 1T 9.300 1 9.375 2 37.375 1
2013-12-19 2013 Hawaiian Pineapple Classic Gym Kinetics Gymnastics A11 3 8 9.175 4 8.850 5 9.500 1 9.200 2 36.725 2

www.lazysuits.com